LiveATC.Net - Listen to live air traffic control over the Internet!


ICAO: LFBD  IATA: BOD   Airport: Bordeaux-Merignac Airport
City: Bordeaux
Country: France   Continent: Europe
LFBD METAR Weather: LFBD 232230Z AUTO 35008KT 9999 SCT030 BKN140 OVC200 05/00 Q1008 NOSIG
LFBD Flight Activity (FlightAware)

Bordeaux Control
Feed Status: UP   Listeners: 1
Listen in your browser - HTML5 player (in browser, HTML5)
Click here to listen with your own player (launches your MP3 player)
Bordeaux Control Audio Archives
FacilityFrequency
Air to Air123.450
Bordeaux Control BN FL<300127.675
Bordeaux Control L3 FL>300134.250
Bordeaux Control R2 FL>300133.575
Emergency/Guard121.500
NOTE: In case of garbled sound, please refresh the player.

NOTICE

Unauthorized use prohibited. See LiveATC.net Terms of Service


Find LiveATC Audio Streams


Airport/ARTCC Code

Frequency Search
(e.g., 124.400, 128.75)
Site-wide search
 


Browse LiveATC Feeds
Top 50 LiveATC Feeds
LiveATC Feed Map
Bad Weather Areas

LiveATC FAQ
Offer LiveATC feed
Contact LiveATC.net
Press Inquiries

LiveATC on iPhone
LiveATC on Android

Windows Phone
Windows 8/10

LiveATC Mobile
(Mobile browser)

ATC Audio Archives
Interesting Recordings

LiveATC Forums


Home Page
About LiveATC.net
Make a Donation
Terms of Use
Privacy Policy

Canadian Air Freqs

AIRMETs/SIGMETs

FAA Airport Status
Nat'l Airspace Status
Arrival Demand Charts


Server Software By:
Icecast.org
Liquidsoap